createdAt,value
2022-11-28T04:17:45.714Z,98432.34
2022-11-28T04:21:02.547Z,98431.44
2022-11-28T04:24:16.116Z,98432.34
2022-11-28T04:27:32.969Z,98425.63
2022-11-28T04:30:44.973Z,98423.81
2022-11-28T04:33:59.424Z,98421.16
2022-11-28T04:37:14.383Z,98420.38
2022-11-28T04:40:26.946Z,98423.69
2022-11-28T04:43:41.570Z,98426.72
2022-11-28T04:46:53.942Z,98422.25
2022-11-28T04:50:04.101Z,98415.66
2022-11-28T04:53:19.956Z,98416.53
2022-11-28T04:56:35.487Z,98412.97
2022-11-28T04:59:46.232Z,98404.44
2022-11-28T05:02:57.885Z,98396.09
2022-11-28T05:06:10.190Z,98389.50
2022-11-28T05:09:21.367Z,98394.47
2022-11-28T05:12:31.294Z,98390.41
2022-11-28T05:15:41.482Z,98398.78
2022-11-28T05:18:51.653Z,98404.50
2022-11-28T05:22:01.814Z,98399.75
2022-11-28T05:25:13.158Z,98393.00
2022-11-28T05:28:23.104Z,98396.00
2022-11-28T05:31:33.176Z,98396.94
2022-11-28T05:34:43.282Z,98399.38
2022-11-28T05:37:53.339Z,98392.53
2022-11-28T05:41:04.940Z,98388.09
2022-11-28T05:44:14.889Z,98398.81
2022-11-28T05:47:25.302Z,98403.91
2022-11-28T05:50:39.769Z,98409.50
2022-11-28T05:53:50.315Z,98399.78
2022-11-28T05:57:02.877Z,98401.56
2022-11-28T06:00:14.406Z,98411.09
2022-11-28T07:23:15.648Z,98420.38
2022-11-28T07:26:25.882Z,98430.28
2022-11-28T07:29:37.068Z,98429.06
2022-11-28T07:32:47.048Z,98429.50
2022-11-28T07:36:01.739Z,98420.13
2022-11-28T07:39:17.618Z,98420.38
2022-11-28T07:42:28.580Z,98423.97
2022-11-28T07:46:00.094Z,98424.56
2022-11-28T07:49:11.645Z,98424.19
2022-11-28T07:52:21.530Z,98423.38
2022-11-28T07:55:36.508Z,98424.06
2022-11-28T07:58:48.338Z,98428.22
2022-11-28T08:01:58.375Z,98425.47
2022-11-28T08:05:08.677Z,98420.97
2022-11-28T08:08:19.662Z,98428.09
2022-11-28T08:11:32.763Z,98435.38
2022-11-28T08:14:43.045Z,98429.06
2022-11-28T08:17:56.250Z,98429.63
2022-11-28T08:21:07.975Z,98425.22
2022-11-28T08:24:18.216Z,98433.06
2022-11-28T08:27:30.548Z,98427.03
2022-11-28T08:30:40.726Z,98422.72
2022-11-28T08:33:52.160Z,98418.47
2022-11-28T08:37:02.121Z,98424.88
2022-11-28T08:40:12.988Z,98416.63
2022-11-28T08:43:24.320Z,98414.97
2022-11-28T08:46:34.811Z,98412.16
2022-11-28T08:49:45.036Z,98409.88
2022-11-28T08:52:55.200Z,98404.19
2022-11-28T08:56:05.235Z,98398.13
2022-11-28T08:59:16.797Z,98404.66
2022-11-28T09:02:26.890Z,98401.41
2022-11-28T09:05:36.834Z,98400.63
2022-11-28T09:08:46.768Z,98404.78
2022-11-28T09:11:56.697Z,98408.59
2022-11-28T09:15:08.966Z,98412.31
2022-11-28T09:18:19.247Z,98413.22
2022-11-28T09:21:29.852Z,98401.13
2022-11-28T09:24:40.288Z,98398.38
2022-11-28T09:27:50.188Z,98396.47
2022-11-28T09:31:03.637Z,98400.81
2022-11-28T09:34:13.657Z,98407.69
2022-11-28T09:37:23.639Z,98397.75
2022-11-28T09:40:38.619Z,98410.00
2022-11-28T09:43:54.718Z,98402.38
2022-11-28T09:47:14.628Z,98403.16
2022-11-28T09:50:28.230Z,98396.75
2022-11-28T09:53:43.143Z,98402.75
2022-11-28T09:56:53.192Z,98394.97
2022-11-28T10:00:03.626Z,98402.09
2022-11-28T10:03:37.267Z,98400.19
2022-11-28T10:06:53.966Z,98394.06
2022-11-28T10:10:15.428Z,98392.69
2022-11-28T10:13:47.027Z,98399.56
2022-11-28T10:17:11.852Z,98401.34
2022-11-28T10:20:27.037Z,98401.59
2022-11-28T10:23:43.375Z,98396.25
2022-11-28T10:26:59.728Z,98393.28
2022-11-28T10:30:16.677Z,98390.34
2022-11-28T10:33:30.162Z,98390.34
2022-11-28T10:36:52.938Z,98388.56
2022-11-28T10:40:17.196Z,98382.81
2022-11-28T10:43:38.502Z,98382.78
2022-11-28T10:46:58.828Z,98372.56
2022-11-28T10:50:16.239Z,98372.28
2022-11-28T10:53:42.231Z,98367.81
2022-11-28T10:57:01.176Z,98369.81
2022-11-28T11:00:13.549Z,98367.03
2022-11-28T11:03:29.182Z,98368.41
2022-11-28T11:06:47.665Z,98375.44
2022-11-28T11:10:16.125Z,98362.13
2022-11-28T11:13:28.774Z,98371.28
2022-11-28T11:16:49.648Z,98361.34
2022-11-28T11:19:59.932Z,98357.84
2022-11-28T11:23:17.746Z,98350.47
2022-11-28T11:26:35.292Z,98351.75
2022-11-28T11:29:48.225Z,98350.88
2022-11-28T11:33:02.971Z,98358.19
2022-11-28T11:36:26.705Z,98357.22
2022-11-28T11:39:49.417Z,98360.38
2022-11-28T11:43:02.171Z,98353.69
2022-11-28T11:46:13.561Z,98356.59
2022-11-28T11:49:30.899Z,98349.53
2022-11-28T11:52:43.643Z,98354.81
2022-11-28T11:55:55.716Z,98360.28
2022-11-28T11:59:15.085Z,98350.19
2022-11-28T12:02:32.425Z,98346.47
2022-11-28T12:06:13.253Z,98353.41
2022-11-28T12:09:28.867Z,98357.72
2022-11-28T12:12:39.643Z,98357.84
2022-11-28T12:16:00.309Z,98356.25
2022-11-28T12:19:21.559Z,98349.06
2022-11-28T12:22:40.441Z,98348.19
2022-11-28T12:25:57.293Z,98347.91
2022-11-28T12:29:26.025Z,98348.75
2022-11-28T12:32:50.192Z,98350.34
2022-11-28T12:36:10.709Z,98344.66
2022-11-28T12:39:35.239Z,98351.97
2022-11-28T12:42:58.294Z,98336.97
2022-11-28T12:46:19.598Z,98334.59
2022-11-28T12:49:39.239Z,98334.25
2022-11-28T12:52:57.264Z,98346.22
2022-11-28T12:56:13.773Z,98341.34
2022-11-28T12:59:33.000Z,98340.19
2022-11-28T13:02:57.160Z,98354.72
2022-11-28T13:06:21.521Z,98347.53
2022-11-28T13:09:54.783Z,98343.81
2022-11-28T13:13:11.123Z,98348.03
2022-11-28T13:16:27.741Z,98344.19
2022-11-28T13:19:44.675Z,98339.75
2022-11-28T13:23:04.474Z,98329.94
2022-11-28T13:26:25.877Z,98334.31
2022-11-28T13:29:43.387Z,98343.75
2022-11-28T13:33:00.375Z,98333.53
2022-11-28T13:39:49.424Z,98338.47
2022-11-28T13:43:08.026Z,98339.22
2022-11-28T13:46:18.614Z,98342.28
2022-11-28T13:49:29.741Z,98336.97
2022-11-28T13:52:43.820Z,98335.56
2022-11-28T13:56:16.890Z,98333.25
2022-11-28T13:59:28.347Z,98333.75
2022-11-28T14:02:45.109Z,98337.97
2022-11-28T14:05:59.599Z,98330.59
2022-11-28T14:09:25.578Z,98333.25
2022-11-28T14:12:44.269Z,98331.78
2022-11-28T14:16:08.020Z,98342.19
2022-11-28T14:19:29.942Z,98336.34
2022-11-28T14:22:52.425Z,98338.50
2022-11-28T14:26:02.748Z,98346.81
2022-11-28T14:29:22.484Z,98341.25
2022-11-28T14:32:37.697Z,98350.28
2022-11-28T14:36:03.546Z,98350.06
2022-11-28T14:39:33.746Z,98355.91
2022-11-28T14:43:00.053Z,98352.09
2022-11-28T14:46:23.874Z,98364.09
2022-11-28T14:49:35.493Z,98362.59
2022-11-28T14:52:46.501Z,98364.84
2022-11-28T14:59:40.462Z,98360.28
2022-11-28T15:03:05.654Z,98368.16
2022-11-28T15:06:21.029Z,98376.47
2022-11-28T15:09:37.526Z,98370.72
2022-11-28T15:13:02.592Z,98366.25
2022-11-28T15:16:15.099Z,98364.09
2022-11-28T15:19:29.035Z,98369.72
2022-11-28T15:22:43.195Z,98365.09
2022-11-28T15:25:55.061Z,98372.25
2022-11-28T15:29:10.686Z,98367.78
2022-11-28T15:32:20.770Z,98372.75
2022-11-28T15:35:31.906Z,98374.41
2022-11-28T15:38:44.796Z,98375.19
2022-11-28T15:41:56.981Z,98374.28
2022-11-28T15:45:16.354Z,98377.63
2022-11-28T15:48:29.347Z,98380.16
2022-11-28T15:51:39.287Z,98382.56
2022-11-28T15:54:51.700Z,98371.47
2022-11-28T15:58:12.139Z,98375.06
2022-11-28T16:01:23.756Z,98378.13
2022-11-28T16:04:35.063Z,98383.00
2022-11-28T16:07:46.029Z,98385.53
2022-11-28T16:10:59.013Z,98387.31
2022-11-28T16:14:12.048Z,98385.66
2022-11-28T16:17:27.356Z,98380.16
2022-11-28T16:20:39.240Z,98385.25
2022-11-28T16:23:49.357Z,98390.25
2022-11-28T16:27:02.851Z,98390.38
2022-11-28T16:30:29.527Z,98391.25
2022-11-28T16:33:41.438Z,98388.94
2022-11-28T16:36:51.938Z,98396.88
2022-11-28T16:40:05.959Z,98386.78
2022-11-28T16:43:25.046Z,98391.88
2022-11-28T16:46:37.702Z,98397.00
2022-11-28T16:50:16.080Z,98399.53
2022-11-28T16:53:44.568Z,98393.69
2022-11-28T16:56:57.566Z,98392.91
2022-11-28T17:00:10.481Z,98393.69
2022-11-28T17:03:43.626Z,98398.78
2022-11-28T17:06:55.415Z,98401.44
2022-11-28T17:10:05.924Z,98407.19
2022-11-28T17:13:17.485Z,98408.13
2022-11-28T17:16:28.955Z,98410.53
2022-11-28T17:19:38.872Z,98412.94
2022-11-28T17:22:51.058Z,98418.94
2022-11-28T17:26:00.885Z,98415.63
2022-11-28T17:29:12.373Z,98418.69
2022-11-28T17:32:23.608Z,98410.28
2022-11-28T17:35:40.457Z,98410.28
2022-11-28T17:38:50.487Z,98415.25
2022-11-28T17:42:00.765Z,98415.34
2022-11-28T17:45:16.780Z,98419.72
2022-11-28T17:48:28.074Z,98417.75
2022-11-28T17:51:38.209Z,98419.41
2022-11-28T17:54:48.384Z,98417.66
2022-11-28T17:57:58.393Z,98415.84
2022-11-28T18:01:15.632Z,98415.09
2022-11-28T18:04:26.930Z,98416.13
2022-11-28T18:07:36.876Z,98417.16
2022-11-28T18:10:46.966Z,98421.47
2022-11-28T18:13:59.991Z,98423.25
2022-11-28T18:17:10.330Z,98417.91
2022-11-28T18:20:22.065Z,98418.41
2022-11-28T18:23:31.992Z,98412.56
2022-11-28T18:26:42.037Z,98418.69
2022-11-28T18:29:52.516Z,98421.22
2022-11-28T18:33:02.653Z,98424.81
2022-11-28T18:36:16.740Z,98424.53
2022-11-28T18:39:26.924Z,98424.28
2022-11-28T18:42:37.955Z,98424.03
2022-11-28T18:45:48.572Z,98427.56
2022-11-28T18:48:59.831Z,98426.97
2022-11-28T18:52:11.013Z,98426.31
2022-11-28T18:55:21.100Z,98423.00
2022-11-28T18:58:34.790Z,98419.72
2022-11-28T19:01:44.944Z,98423.25
2022-11-28T19:04:55.485Z,98430.91
2022-11-28T19:08:07.061Z,98428.34
2022-11-28T19:11:18.380Z,98430.00
2022-11-28T19:14:30.159Z,98442.78
2022-11-28T19:17:41.669Z,98430.91
2022-11-28T19:20:51.714Z,98433.44
2022-11-28T19:24:03.907Z,98435.00
2022-11-28T19:27:14.847Z,98432.94
2022-11-28T19:30:25.933Z,98429.63
2022-11-28T19:33:36.374Z,98431.16
2022-11-28T19:36:47.794Z,98436.38
2022-11-28T19:40:02.528Z,98432.81
2022-11-28T19:43:13.100Z,98434.22
2022-11-28T19:46:23.220Z,98434.22
2022-11-28T19:49:33.546Z,98434.22
2022-11-28T19:52:44.998Z,98431.69
2022-11-28T19:55:56.843Z,98435.09
2022-11-28T19:59:06.964Z,98436.00
2022-11-28T20:02:17.690Z,98439.56
2022-11-28T20:05:27.808Z,98438.56
2022-11-28T20:08:38.959Z,98445.31
2022-11-28T20:11:50.795Z,98440.84
2022-11-28T20:15:02.308Z,98452.81
2022-11-28T20:18:12.347Z,98454.63
2022-11-28T20:21:22.814Z,98458.16
2022-11-28T20:24:33.008Z,98465.97
2022-11-28T20:27:45.423Z,98464.31
2022-11-28T20:30:55.430Z,98468.66
2022-11-28T20:34:07.254Z,98464.44
2022-11-28T20:37:17.198Z,98469.53
2022-11-28T20:40:27.922Z,98465.47
2022-11-28T20:43:40.624Z,98466.50
2022-11-28T20:46:50.727Z,98470.72
2022-11-28T20:50:00.734Z,98473.25
2022-11-28T20:53:10.774Z,98471.47
2022-11-28T20:56:22.404Z,98473.13
2022-11-28T20:59:33.847Z,98478.09
2022-11-28T21:02:45.808Z,98476.03
